createdAt,value
2023-02-28T00:01:06.326Z,-1.08
2023-02-28T00:03:35.633Z,-1.10
2023-02-28T00:06:05.039Z,-1.13
2023-02-28T00:08:32.257Z,-1.16
2023-02-28T00:11:03.812Z,-1.21
2023-02-28T00:13:31.346Z,-1.25
2023-02-28T00:16:03.838Z,-1.28
2023-02-28T00:18:31.635Z,-1.29
2023-02-28T00:20:59.422Z,-1.31
2023-02-28T00:23:27.351Z,-1.33
2023-02-28T00:25:54.376Z,-1.35
2023-02-28T00:28:22.257Z,-1.40
2023-02-28T00:30:49.424Z,-1.47
2023-02-28T00:33:16.495Z,-1.52
2023-02-28T00:35:46.713Z,-1.54
2023-02-28T00:38:14.234Z,-1.56
2023-02-28T00:40:41.173Z,-1.58
2023-02-28T00:43:08.232Z,-1.62
2023-02-28T00:45:35.200Z,-1.65
2023-02-28T00:48:02.237Z,-1.69
2023-02-28T00:50:30.089Z,-1.72
2023-02-28T00:52:57.855Z,-1.75
2023-02-28T00:55:24.863Z,-1.79
2023-02-28T00:57:51.850Z,-1.82
2023-02-28T01:00:19.100Z,-1.85
2023-02-28T01:02:45.970Z,-1.92
2023-02-28T01:05:13.511Z,-1.98
2023-02-28T01:07:40.484Z,-2.00
2023-02-28T01:10:08.418Z,-2.03
2023-02-28T01:12:35.497Z,-2.08
2023-02-28T01:15:02.758Z,-2.13
2023-02-28T01:17:29.884Z,-2.19
2023-02-28T01:19:56.915Z,-2.21
2023-02-28T01:22:25.889Z,-2.26
2023-02-28T01:24:53.476Z,-2.32
2023-02-28T01:27:20.563Z,-2.38
2023-02-28T01:29:47.521Z,-2.43
2023-02-28T01:32:14.531Z,-2.46
2023-02-28T01:34:41.628Z,-2.48
2023-02-28T01:37:08.567Z,-2.54
2023-02-28T01:39:35.479Z,-2.60
2023-02-28T01:42:04.288Z,-2.64
2023-02-28T01:45:01.795Z,-2.68
2023-02-28T01:47:36.949Z,-2.73
2023-02-28T01:50:06.710Z,-2.79
2023-02-28T01:52:34.571Z,-2.86
2023-02-28T01:55:04.744Z,-2.90
2023-02-28T01:57:38.116Z,-2.93
2023-02-28T02:00:15.521Z,-2.95
2023-02-28T02:02:51.272Z,-3.02
2023-02-28T02:05:31.567Z,-3.06
2023-02-28T02:08:12.677Z,-3.13
2023-02-28T02:10:55.932Z,-3.16
2023-02-28T02:13:55.996Z,-3.17
2023-02-28T02:16:39.431Z,-3.20
2023-02-28T02:19:34.556Z,-3.24
2023-02-28T02:22:16.475Z,-3.28
2023-02-28T02:24:55.378Z,-3.32
2023-02-28T02:27:37.158Z,-3.38
2023-02-28T02:30:22.585Z,-3.41
2023-02-28T02:32:49.498Z,-3.44
2023-02-28T02:36:02.416Z,-3.46
2023-02-28T02:38:43.936Z,-3.49
2023-02-28T02:41:25.010Z,-3.55
2023-02-28T02:44:02.043Z,-3.63
2023-02-28T02:46:42.856Z,-3.70
2023-02-28T02:49:16.259Z,-3.76
2023-02-28T02:51:46.312Z,-3.82
2023-02-28T02:54:30.850Z,-3.88
2023-02-28T02:57:02.088Z,-3.94
2023-02-28T02:59:30.870Z,-3.99
2023-02-28T03:02:02.335Z,-4.02
2023-02-28T03:04:33.976Z,-4.06
2023-02-28T03:07:01.069Z,-4.10
2023-02-28T03:09:28.056Z,-4.14
2023-02-28T03:11:57.212Z,-4.17
2023-02-28T03:14:53.383Z,-4.20
2023-02-28T03:17:32.306Z,-4.25
2023-02-28T03:19:59.192Z,-4.30
2023-02-28T03:22:53.699Z,-4.33
2023-02-28T03:25:40.880Z,-4.34
2023-02-28T03:28:37.432Z,-4.39
2023-02-28T03:31:12.781Z,-4.42
2023-02-28T03:33:55.020Z,-4.42
2023-02-28T03:36:32.711Z,-4.44
2023-02-28T03:39:07.720Z,-4.47
2023-02-28T03:41:42.617Z,-4.53
2023-02-28T03:44:16.252Z,-4.59
2023-02-28T03:46:52.831Z,-4.65
2023-02-28T03:49:25.260Z,-4.68
2023-02-28T03:51:54.986Z,-4.72
2023-02-28T03:54:32.100Z,-4.77
2023-02-28T03:57:11.120Z,-4.81
2023-02-28T03:59:44.210Z,-4.85
2023-02-28T04:02:11.216Z,-4.88
2023-02-28T04:04:38.419Z,-4.90
2023-02-28T04:07:08.561Z,-4.93
2023-02-28T04:09:35.639Z,-4.94
2023-02-28T04:12:02.882Z,-4.97
2023-02-28T04:14:30.226Z,-5.00
2023-02-28T04:16:57.458Z,-5.01
2023-02-28T04:19:24.764Z,-5.03
2023-02-28T04:21:53.601Z,-5.07
2023-02-28T04:24:23.566Z,-5.09
2023-02-28T04:26:53.287Z,-5.12
2023-02-28T04:29:29.426Z,-5.15
2023-02-28T04:32:01.095Z,-5.18
2023-02-28T04:34:30.827Z,-5.22
2023-02-28T04:37:11.980Z,-5.23
2023-02-28T04:39:40.862Z,-5.26
2023-02-28T04:42:08.095Z,-5.29
2023-02-28T04:44:35.028Z,-5.32
2023-02-28T04:47:02.001Z,-5.37
2023-02-28T04:49:29.147Z,-5.39
2023-02-28T04:51:56.184Z,-5.41
2023-02-28T04:54:23.183Z,-5.42
2023-02-28T04:56:50.284Z,-5.44
2023-02-28T04:59:17.813Z,-5.45
2023-02-28T05:01:49.381Z,-5.47
2023-02-28T05:04:16.704Z,-5.49
2023-02-28T05:06:43.686Z,-5.52
2023-02-28T05:09:13.763Z,-5.53
2023-02-28T05:11:41.386Z,-5.53
2023-02-28T05:14:13.699Z,-5.56
2023-02-28T05:16:40.965Z,-5.58
2023-02-28T05:19:08.135Z,-5.59
2023-02-28T05:21:38.290Z,-5.61
2023-02-28T05:24:08.437Z,-5.62
2023-02-28T05:26:41.110Z,-5.62
2023-02-28T05:29:09.252Z,-5.61
2023-02-28T05:31:36.863Z,-5.60
2023-02-28T05:34:06.708Z,-5.61
2023-02-28T05:36:34.166Z,-5.62
2023-02-28T05:39:01.228Z,-5.63
2023-02-28T05:41:28.683Z,-5.63
2023-02-28T05:43:57.695Z,-5.64
2023-02-28T05:46:24.629Z,-5.63
2023-02-28T05:48:51.634Z,-5.63
2023-02-28T05:51:18.743Z,-5.61
2023-02-28T05:53:45.996Z,-5.61
2023-02-28T05:56:13.300Z,-5.60
2023-02-28T05:58:40.788Z,-5.59
2023-02-28T06:01:37.937Z,-5.57
2023-02-28T06:04:14.341Z,-5.55
2023-02-28T06:06:50.688Z,-5.53
2023-02-28T06:09:19.661Z,-5.50
2023-02-28T06:11:47.238Z,-5.46
2023-02-28T06:14:19.711Z,-5.40
2023-02-28T06:16:48.089Z,-5.34
2023-02-28T06:19:15.984Z,-5.29
2023-02-28T06:21:43.512Z,-5.22
2023-02-28T06:24:10.952Z,-5.13
2023-02-28T06:26:38.524Z,-5.05
2023-02-28T06:29:06.169Z,-4.97
2023-02-28T06:31:34.091Z,-4.90
2023-02-28T06:34:01.803Z,-4.85
2023-02-28T06:36:29.517Z,-4.80
2023-02-28T06:38:57.271Z,-4.73
2023-02-28T06:41:26.430Z,-4.68
2023-02-28T06:43:55.068Z,-4.63
2023-02-28T06:46:24.504Z,-4.59
2023-02-28T06:48:52.377Z,-4.53
2023-02-28T06:51:22.724Z,-4.47
2023-02-28T06:53:50.454Z,-4.41
2023-02-28T06:56:18.967Z,-4.34
2023-02-28T06:58:52.139Z,-4.26
2023-02-28T07:01:20.441Z,-4.18
2023-02-28T07:03:52.496Z,-4.08
2023-02-28T07:06:24.741Z,-3.99
2023-02-28T07:08:53.514Z,-3.92
2023-02-28T07:11:26.061Z,-3.82
2023-02-28T07:13:55.526Z,-3.69
2023-02-28T07:16:24.289Z,-3.55
2023-02-28T07:18:55.564Z,-3.40
2023-02-28T07:21:23.011Z,-3.26
2023-02-28T07:23:50.633Z,-3.11
2023-02-28T07:26:20.537Z,-2.98
2023-02-28T07:28:49.001Z,-2.85
2023-02-28T07:31:17.568Z,-2.70
2023-02-28T07:33:44.724Z,-2.56
2023-02-28T07:36:15.601Z,-2.41
2023-02-28T07:38:45.778Z,-2.21
2023-02-28T07:41:16.225Z,-2.00
2023-02-28T07:43:44.679Z,-1.76
2023-02-28T07:46:17.732Z,-1.51
2023-02-28T07:48:45.689Z,-1.27
2023-02-28T07:51:13.048Z,-1.05
2023-02-28T07:53:41.083Z,-0.83
2023-02-28T07:56:08.391Z,-0.61
2023-02-28T07:58:35.410Z,-0.41
2023-02-28T08:01:10.345Z,-0.27
2023-02-28T08:03:38.832Z,-0.12
2023-02-28T08:06:08.307Z,-0.01
2023-02-28T08:08:35.704Z,0.05
2023-02-28T08:11:03.835Z,0.12
2023-02-28T08:13:32.187Z,0.14
2023-02-28T08:16:02.490Z,0.20
2023-02-28T08:18:30.118Z,0.25
2023-02-28T08:20:57.827Z,0.26
2023-02-28T08:23:25.001Z,0.29
2023-02-28T08:25:56.237Z,0.30
2023-02-28T08:28:26.095Z,0.35
2023-02-28T08:30:55.318Z,0.41
2023-02-28T08:33:23.228Z,0.50
2023-02-28T08:35:54.416Z,0.60
2023-02-28T08:38:22.471Z,0.70
2023-02-28T08:40:50.040Z,0.83
2023-02-28T08:43:17.257Z,0.97
2023-02-28T08:45:44.484Z,1.05
2023-02-28T08:48:11.583Z,1.14
2023-02-28T08:50:38.573Z,1.23
2023-02-28T08:53:05.759Z,1.27
2023-02-28T08:55:32.763Z,1.30
2023-02-28T08:58:01.560Z,1.35
2023-02-28T09:00:28.994Z,1.37
2023-02-28T09:02:55.975Z,1.34
2023-02-28T09:05:23.377Z,1.32
2023-02-28T09:07:50.484Z,1.38
2023-02-28T09:10:17.556Z,1.41
2023-02-28T09:12:47.252Z,1.43
2023-02-28T09:15:14.326Z,1.45
2023-02-28T09:17:41.891Z,1.58
2023-02-28T09:20:10.369Z,1.71
2023-02-28T09:22:37.384Z,1.81
2023-02-28T09:25:04.735Z,1.93
2023-02-28T09:27:31.830Z,2.09
2023-02-28T09:29:58.917Z,2.20
2023-02-28T09:32:26.033Z,2.32
2023-02-28T09:34:53.144Z,2.38
2023-02-28T09:37:20.318Z,2.42
2023-02-28T09:39:47.375Z,2.54
2023-02-28T09:42:33.476Z,2.64
2023-02-28T09:45:16.559Z,2.68
2023-02-28T09:47:47.051Z,2.77
2023-02-28T09:50:28.980Z,2.92
2023-02-28T09:52:56.656Z,3.07
2023-02-28T09:55:28.931Z,3.22
2023-02-28T09:58:00.440Z,3.31
2023-02-28T10:00:34.706Z,3.25
2023-02-28T10:03:01.874Z,3.19
2023-02-28T10:06:12.612Z,3.27
2023-02-28T10:08:48.897Z,3.40
2023-02-28T10:11:18.719Z,3.57
2023-02-28T10:14:16.273Z,3.74
2023-02-28T10:17:04.217Z,3.81
2023-02-28T10:19:34.168Z,3.85
2023-02-28T10:22:04.343Z,3.85
2023-02-28T10:24:54.508Z,3.88
2023-02-28T10:27:29.336Z,3.92
2023-02-28T10:29:59.581Z,3.90
2023-02-28T10:32:31.411Z,4.06
2023-02-28T10:35:18.546Z,4.25
2023-02-28T10:37:50.483Z,4.36
2023-02-28T10:40:20.569Z,4.42
2023-02-28T10:43:01.216Z,4.44
2023-02-28T10:45:35.421Z,4.42
2023-02-28T10:48:11.695Z,4.44
2023-02-28T10:50:50.064Z,4.47
2023-02-28T10:53:26.193Z,4.33
2023-02-28T10:56:18.081Z,4.24
2023-02-28T10:58:45.312Z,4.20
2023-02-28T11:01:18.409Z,4.18
2023-02-28T11:03:46.459Z,4.21
2023-02-28T11:06:21.499Z,4.23
2023-02-28T11:08:53.077Z,4.35
2023-02-28T11:11:22.136Z,4.42
2023-02-28T11:13:53.826Z,4.42
2023-02-28T11:16:22.110Z,4.32
2023-02-28T11:18:55.763Z,4.26
2023-02-28T11:21:52.401Z,4.30
2023-02-28T11:24:29.232Z,4.51
2023-02-28T11:26:57.150Z,4.65
2023-02-28T11:29:27.747Z,4.65
2023-02-28T11:32:13.261Z,4.58
2023-02-28T11:34:41.252Z,4.52
2023-02-28T11:37:19.181Z,4.52
2023-02-28T11:39:47.098Z,4.53
2023-02-28T11:42:29.039Z,4.56
2023-02-28T11:45:15.578Z,4.59
2023-02-28T11:47:57.281Z,4.69
2023-02-28T11:50:27.725Z,4.78
2023-02-28T11:52:56.924Z,4.83
2023-02-28T11:55:48.176Z,4.90
2023-02-28T11:58:34.292Z,4.94
2023-02-28T12:01:37.403Z,5.01
2023-02-28T12:04:23.472Z,5.29
2023-02-28T12:06:57.077Z,5.54
2023-02-28T12:09:52.390Z,5.69
2023-02-28T12:12:44.377Z,5.68
2023-02-28T12:15:44.175Z,5.67
2023-02-28T12:18:31.321Z,5.60
2023-02-28T12:21:12.054Z,5.60
2023-02-28T12:23:54.874Z,5.56
2023-02-28T12:26:56.017Z,5.57
2023-02-28T12:29:30.540Z,5.79
2023-02-28T12:32:13.001Z,5.87
2023-02-28T12:35:05.104Z,5.92
2023-02-28T12:37:43.994Z,5.98
2023-02-28T12:40:13.200Z,6.00
2023-02-28T12:42:46.760Z,6.14
2023-02-28T12:45:24.438Z,6.49
2023-02-28T12:48:01.382Z,6.64
2023-02-28T12:50:31.809Z,6.58
2023-02-28T12:53:01.227Z,6.47
2023-02-28T12:55:40.197Z,6.39
2023-02-28T12:58:13.523Z,6.47
2023-02-28T13:01:01.583Z,6.56
2023-02-28T13:04:00.535Z,6.23
2023-02-28T13:07:18.301Z,5.95
2023-02-28T13:10:01.311Z,5.80
2023-02-28T13:12:28.934Z,5.65
2023-02-28T13:15:16.903Z,5.51
2023-02-28T13:17:50.470Z,5.55
2023-02-28T13:20:24.190Z,5.69
2023-02-28T13:22:54.077Z,5.82
2023-02-28T13:25:34.842Z,5.84
2023-02-28T13:28:09.128Z,5.81
2023-02-28T13:30:58.993Z,5.71
2023-02-28T13:33:40.234Z,5.51
2023-02-28T13:36:23.429Z,5.39
2023-02-28T13:39:00.656Z,5.34
2023-02-28T13:41:34.130Z,5.38
2023-02-28T13:44:12.074Z,5.40
2023-02-28T13:46:48.603Z,5.36
2023-02-28T13:49:34.806Z,5.32
2023-02-28T13:52:09.058Z,5.31
2023-02-28T13:55:09.110Z,5.29
2023-02-28T13:57:55.626Z,5.12
2023-02-28T14:01:02.891Z,4.91
2023-02-28T14:03:36.383Z,4.77
2023-02-28T14:06:15.215Z,4.70
2023-02-28T14:08:56.871Z,4.70
2023-02-28T14:11:31.693Z,4.64
2023-02-28T14:13:59.904Z,4.56
2023-02-28T14:16:37.087Z,4.47
2023-02-28T14:19:26.124Z,4.32
2023-02-28T14:22:25.033Z,4.25
2023-02-28T14:25:17.069Z,4.26
2023-02-28T14:27:48.646Z,4.29
2023-02-28T14:30:34.455Z,4.23
2023-02-28T14:33:49.457Z,4.13
2023-02-28T14:36:28.104Z,4.03
2023-02-28T14:39:01.869Z,3.96
2023-02-28T14:41:37.148Z,3.91
2023-02-28T14:44:21.514Z,3.83
2023-02-28T14:46:55.371Z,3.69
2023-02-28T14:49:29.536Z,3.59
2023-02-28T14:52:19.409Z,3.51
2023-02-28T14:54:46.901Z,3.42
2023-02-28T14:57:41.429Z,3.34
2023-02-28T15:00:16.833Z,3.26
2023-02-28T15:02:44.046Z,3.20
2023-02-28T15:05:23.500Z,3.14
2023-02-28T15:08:13.563Z,3.06
2023-02-28T15:10:51.158Z,2.99
2023-02-28T15:13:19.702Z,2.93
2023-02-28T15:16:04.404Z,2.84
2023-02-28T15:18:31.947Z,2.78
2023-02-28T15:21:13.734Z,2.74
2023-02-28T15:23:45.468Z,2.69
2023-02-28T15:26:17.739Z,2.65
2023-02-28T15:28:46.300Z,2.61
2023-02-28T15:31:57.293Z,2.56
2023-02-28T15:34:43.543Z,2.48
2023-02-28T15:37:31.037Z,2.41
2023-02-28T15:40:11.805Z,2.36
2023-02-28T15:42:39.285Z,2.31
2023-02-28T15:45:26.585Z,2.26
2023-02-28T15:47:54.787Z,2.17
2023-02-28T15:50:23.450Z,2.09
2023-02-28T15:52:50.622Z,2.02
2023-02-28T15:55:28.620Z,1.93
2023-02-28T15:57:59.088Z,1.83
2023-02-28T16:00:29.172Z,1.74
2023-02-28T16:02:56.312Z,1.66
2023-02-28T16:05:33.028Z,1.58
2023-02-28T16:08:16.035Z,1.51
2023-02-28T16:10:43.103Z,1.42
2023-02-28T16:13:15.507Z,1.32
2023-02-28T16:15:44.190Z,1.24
2023-02-28T16:18:12.460Z,1.16
2023-02-28T16:20:39.709Z,1.10
2023-02-28T16:23:07.519Z,1.03
2023-02-28T16:25:39.048Z,0.96
2023-02-28T16:28:18.856Z,0.90
2023-02-28T16:30:45.965Z,0.84
2023-02-28T16:33:12.907Z,0.77
2023-02-28T16:35:40.111Z,0.70
2023-02-28T16:38:07.142Z,0.62
2023-02-28T16:40:36.125Z,0.54
2023-02-28T16:43:10.168Z,0.46
2023-02-28T16:45:37.271Z,0.38
2023-02-28T16:48:04.387Z,0.31
2023-02-28T16:50:33.004Z,0.24
2023-02-28T16:52:59.971Z,0.16
2023-02-28T16:55:28.287Z,0.10
2023-02-28T16:57:58.828Z,0.03
2023-02-28T17:00:27.752Z,-0.04
2023-02-28T17:02:55.516Z,-0.12
2023-02-28T17:05:23.564Z,-0.18
2023-02-28T17:07:50.670Z,-0.27
2023-02-28T17:10:25.349Z,-0.32
2023-02-28T17:12:55.012Z,-0.37
2023-02-28T17:15:23.845Z,-0.43
2023-02-28T17:17:50.906Z,-0.52
2023-02-28T17:20:26.925Z,-0.57
2023-02-28T17:22:54.834Z,-0.63
2023-02-28T17:25:23.080Z,-0.70
2023-02-28T17:27:53.626Z,-0.76
2023-02-28T17:30:27.541Z,-0.83
2023-02-28T17:32:57.668Z,-0.89
2023-02-28T17:35:24.658Z,-0.95
2023-02-28T17:37:52.071Z,-0.99
2023-02-28T17:40:22.753Z,-1.05
2023-02-28T17:42:52.715Z,-1.10
2023-02-28T17:45:20.222Z,-1.14
2023-02-28T17:47:50.743Z,-1.19
2023-02-28T17:50:21.334Z,-1.22
2023-02-28T17:52:50.798Z,-1.27
2023-02-28T17:55:19.369Z,-1.31
2023-02-28T17:57:46.712Z,-1.35
2023-02-28T18:00:17.688Z,-1.40
2023-02-28T18:02:44.937Z,-1.48
2023-02-28T18:05:12.027Z,-1.54
2023-02-28T18:07:39.641Z,-1.59
2023-02-28T18:10:13.351Z,-1.63
2023-02-28T18:12:40.380Z,-1.68
2023-02-28T18:15:07.749Z,-1.75
2023-02-28T18:17:34.716Z,-1.79
2023-02-28T18:20:01.870Z,-1.84
2023-02-28T18:22:28.977Z,-1.91
2023-02-28T18:24:55.960Z,-1.97
2023-02-28T18:27:22.970Z,-2.01
2023-02-28T18:29:51.794Z,-2.05
2023-02-28T18:32:18.724Z,-2.09
2023-02-28T18:34:45.832Z,-2.14
2023-02-28T18:37:12.835Z,-2.19
2023-02-28T18:39:39.952Z,-2.22
2023-02-28T18:42:08.294Z,-2.25
2023-02-28T18:44:37.607Z,-2.30
2023-02-28T18:47:04.801Z,-2.33
2023-02-28T18:49:37.333Z,-2.39
2023-02-28T18:52:04.476Z,-2.44
2023-02-28T18:54:31.409Z,-2.49
2023-02-28T18:56:58.364Z,-2.53
2023-02-28T18:59:25.727Z,-2.57
2023-02-28T19:01:52.746Z,-2.60
2023-02-28T19:04:19.857Z,-2.63
2023-02-28T19:06:46.888Z,-2.64
2023-02-28T19:09:15.469Z,-2.66
2023-02-28T19:11:43.668Z,-2.67
2023-02-28T19:14:10.599Z,-2.68
2023-02-28T19:16:37.773Z,-2.69
2023-02-28T19:19:05.143Z,-2.71
2023-02-28T19:21:32.191Z,-2.74
2023-02-28T19:24:02.197Z,-2.77
2023-02-28T19:26:29.661Z,-2.81
2023-02-28T19:28:56.938Z,-2.84
2023-02-28T19:31:25.748Z,-2.88
2023-02-28T19:33:53.443Z,-2.91
2023-02-28T19:36:21.443Z,-2.94
2023-02-28T19:38:49.575Z,-2.96
2023-02-28T19:41:17.810Z,-3.00
2023-02-28T19:43:45.634Z,-3.04
2023-02-28T19:46:15.686Z,-3.06
2023-02-28T19:48:44.184Z,-3.10
2023-02-28T19:51:14.649Z,-3.13
2023-02-28T19:53:42.932Z,-3.18
2023-02-28T19:56:11.218Z,-3.21
2023-02-28T19:58:39.030Z,-3.25
2023-02-28T20:01:17.942Z,-3.30
2023-02-28T20:03:51.503Z,-3.33
2023-02-28T20:06:18.581Z,-3.35
2023-02-28T20:08:45.764Z,-3.38
2023-02-28T20:11:15.993Z,-3.40
2023-02-28T20:13:44.300Z,-3.42
2023-02-28T20:16:12.567Z,-3.44
2023-02-28T20:18:40.975Z,-3.45
2023-02-28T20:21:09.502Z,-3.47
2023-02-28T20:23:41.141Z,-3.48
2023-02-28T20:26:09.302Z,-3.49
2023-02-28T20:28:36.530Z,-3.50
2023-02-28T20:31:10.316Z,-3.51
2023-02-28T20:33:37.336Z,-3.52
2023-02-28T20:36:04.977Z,-3.54
2023-02-28T20:38:32.673Z,-3.57
2023-02-28T20:41:00.736Z,-3.58
2023-02-28T20:43:29.183Z,-3.61
2023-02-28T20:46:00.832Z,-3.64
2023-02-28T20:48:32.670Z,-3.67
2023-02-28T20:50:59.712Z,-3.72
2023-02-28T20:53:27.922Z,-3.77
2023-02-28T20:55:55.052Z,-3.81
2023-02-28T20:58:24.501Z,-3.85
2023-02-28T21:00:58.479Z,-3.87
2023-02-28T21:03:25.473Z,-3.89
2023-02-28T21:05:52.331Z,-3.92
2023-02-28T21:08:19.477Z,-3.94
2023-02-28T21:10:46.570Z,-3.96
2023-02-28T21:13:13.758Z,-3.97
2023-02-28T21:15:40.679Z,-4.00
2023-02-28T21:18:08.366Z,-4.03
2023-02-28T21:20:35.348Z,-4.06
2023-02-28T21:23:02.405Z,-4.09
2023-02-28T21:25:32.798Z,-4.11
2023-02-28T21:27:59.718Z,-4.12
2023-02-28T21:30:26.615Z,-4.14
2023-02-28T21:32:53.713Z,-4.17
2023-02-28T21:35:20.928Z,-4.21
2023-02-28T21:37:47.909Z,-4.22
2023-02-28T21:40:15.002Z,-4.24
2023-02-28T21:42:41.948Z,-4.26
2023-02-28T21:45:09.118Z,-4.27
2023-02-28T21:47:36.170Z,-4.30
2023-02-28T21:50:03.247Z,-4.31
2023-02-28T21:52:30.167Z,-4.32
2023-02-28T21:54:57.316Z,-4.33
2023-02-28T21:57:24.350Z,-4.34
2023-02-28T21:59:51.416Z,-4.36
2023-02-28T22:02:18.470Z,-4.35
2023-02-28T22:04:45.443Z,-4.37
2023-02-28T22:07:12.465Z,-4.38
2023-02-28T22:09:39.416Z,-4.39
2023-02-28T22:12:07.790Z,-4.42
2023-02-28T22:14:34.725Z,-4.44
2023-02-28T22:17:01.812Z,-4.47
2023-02-28T22:19:29.448Z,-4.50
2023-02-28T22:21:56.585Z,-4.53
2023-02-28T22:24:24.658Z,-4.56
2023-02-28T22:26:53.188Z,-4.58
2023-02-28T22:29:20.451Z,-4.60
2023-02-28T22:31:47.670Z,-4.63
2023-02-28T22:34:14.701Z,-4.66
2023-02-28T22:36:42.865Z,-4.67
2023-02-28T22:39:10.477Z,-4.67
2023-02-28T22:41:38.171Z,-4.67
2023-02-28T22:44:06.650Z,-4.69
2023-02-28T22:46:34.605Z,-4.71
2023-02-28T22:49:03.900Z,-4.72
2023-02-28T22:51:31.312Z,-4.75
2023-02-28T22:53:58.743Z,-4.77
2023-02-28T22:56:29.029Z,-4.79
2023-02-28T22:58:58.460Z,-4.81
2023-02-28T23:01:28.543Z,-4.82
2023-02-28T23:03:56.192Z,-4.83
2023-02-28T23:06:26.346Z,-4.84
2023-02-28T23:08:57.728Z,-4.87
2023-02-28T23:11:28.593Z,-4.90
2023-02-28T23:13:59.274Z,-4.92
2023-02-28T23:16:37.130Z,-4.95
2023-02-28T23:19:13.952Z,-4.98
2023-02-28T23:21:42.036Z,-5.02
2023-02-28T23:24:11.235Z,-5.03
2023-02-28T23:26:43.285Z,-5.04
2023-02-28T23:29:12.301Z,-5.06
2023-02-28T23:31:39.469Z,-5.08
2023-02-28T23:34:07.528Z,-5.09
2023-02-28T23:36:34.755Z,-5.12
2023-02-28T23:39:01.805Z,-5.15
2023-02-28T23:41:29.094Z,-5.17
2023-02-28T23:43:56.278Z,-5.19
2023-02-28T23:46:23.407Z,-5.22
2023-02-28T23:48:50.743Z,-5.23
2023-02-28T23:51:20.577Z,-5.25
2023-02-28T23:53:51.814Z,-5.27
2023-02-28T23:56:21.612Z,-5.29
2023-02-28T23:58:49.756Z,-5.30
